Time;durP1;ratioP1;P1;durP2;ratioP2;P2;SDS_P1;SDS_P2;PMS_P1;PMS_P2;Temp;Humidity;BMP_temperature;BMP_pressure;BME280_temperature;BME280_humidity;BME280_pressure;Samples;Min_cycle;Max_cycle;Signal;HPM_P1;HPM_P2
2024/03/30 00:01:01;;;;;;;38.17;2.95;;;23.90;14.90;;;;;;6284992;28;20020;-76
2024/03/30 00:04:02;;;;;;;38.08;2.60;;;23.90;14.80;;;;;;6311390;28;20404;-76
2024/03/30 00:07:03;;;;;;;27.10;3.30;;;23.90;14.50;;;;;;6307970;28;20074;-76
2024/03/30 00:10:04;;;;;;;19.38;3.33;;;23.90;14.80;;;;;;6306062;28;20023;-75
2024/03/30 00:13:07;;;;;;;20.05;2.33;;;23.90;15.00;;;;;;6291647;28;20381;-75
2024/03/30 00:16:11;;;;;;;24.60;2.75;;;23.90;15.20;;;;;;6291359;28;20074;-75
2024/03/30 00:19:15;;;;;;;37.30;3.17;;;23.80;15.20;;;;;;6291772;28;20016;-76
2024/03/30 00:22:15;;;;;;;32.72;2.90;;;23.80;15.30;;;;;;6306647;28;20028;-75
2024/03/30 00:25:18;;;;;;;41.38;3.17;;;23.80;15.30;;;;;;6300115;28;20508;-76
2024/03/30 00:28:18;;;;;;;28.02;3.00;;;23.80;15.40;;;;;;6302997;28;20032;-75
2024/03/30 00:31:23;;;;;;;34.72;3.55;;;23.70;15.40;;;;;;6274529;28;20020;-77
2024/03/30 00:34:24;;;;;;;28.98;2.72;;;23.70;15.40;;;;;;6309110;28;20036;-77
2024/03/30 00:37:25;;;;;;;39.45;3.00;;;23.70;16.00;;;;;;6308715;28;20616;-77
2024/03/30 00:40:25;;;;;;;35.85;2.50;;;23.70;15.60;;;;;;6308982;28;20055;-77
2024/03/30 00:43:27;;;;;;;24.02;3.08;;;23.70;15.50;;;;;;6309221;28;20054;-77
2024/03/30 00:46:28;;;;;;;25.70;3.00;;;23.70;15.30;;;;;;6300764;28;20024;-76
2024/03/30 00:49:29;;;;;;;23.52;2.97;;;23.70;15.30;;;;;;6285140;28;20016;-75
2024/03/30 00:52:30;;;;;;;28.35;4.13;;;23.70;15.30;;;;;;6306278;28;20353;-76
2024/03/30 00:55:31;;;;;;;30.42;3.65;;;23.70;15.40;;;;;;6305479;28;20016;-77
2024/03/30 00:58:32;;;;;;;40.92;2.60;;;23.70;15.50;;;;;;6289703;28;20144;-75
2024/03/30 01:01:33;;;;;;;36.17;3.70;;;23.60;15.20;;;;;;6308901;28;20027;-77
2024/03/30 01:04:34;;;;;;;47.92;4.35;;;23.70;15.30;;;;;;6301017;28;20071;-75
2024/03/30 01:07:37;;;;;;;29.58;2.75;;;23.60;15.00;;;;;;6308476;28;20740;-75
2024/03/30 01:10:38;;;;;;;27.98;3.00;;;23.60;15.20;;;;;;6289663;28;20026;-77
2024/03/30 01:13:39;;;;;;;15.90;2.05;;;23.70;15.20;;;;;;6305900;28;20150;-75
2024/03/30 01:16:40;;;;;;;26.50;2.90;;;23.70;15.00;;;;;;6290373;28;20529;-75
2024/03/30 01:19:41;;;;;;;28.27;2.28;;;23.70;14.80;;;;;;6279550;28;20107;-75
2024/03/30 01:22:42;;;;;;;26.08;3.10;;;23.70;15.00;;;;;;6308222;28;20120;-75
2024/03/30 01:25:43;;;;;;;27.58;2.22;;;23.80;15.20;;;;;;6288832;28;20055;-75
2024/03/30 01:28:45;;;;;;;16.02;1.80;;;23.70;15.10;;;;;;6303664;28;20095;-76
2024/03/30 01:31:46;;;;;;;21.13;3.65;;;23.70;15.00;;;;;;6267815;28;20115;-76
2024/03/30 01:34:47;;;;;;;17.25;2.65;;;23.80;14.70;;;;;;6302920;28;20031;-76
2024/03/30 01:37:48;;;;;;;26.35;3.50;;;23.80;14.50;;;;;;6284421;28;20024;-75
2024/03/30 01:40:50;;;;;;;27.60;2.28;;;23.80;14.40;;;;;;6303191;28;20054;-76
2024/03/30 01:43:50;;;;;;;33.63;2.38;;;23.90;14.30;;;;;;6308361;28;20182;-74
2024/03/30 01:46:52;;;;;;;43.30;2.90;;;24.00;14.40;;;;;;6299327;28;20136;-75
2024/03/30 01:49:55;;;;;;;40.30;3.10;;;24.00;14.50;;;;;;6298208;28;20024;-76
2024/03/30 01:52:58;;;;;;;33.70;3.00;;;24.10;14.40;;;;;;6307217;28;20053;-74
2024/03/30 01:55:59;;;;;;;36.92;3.20;;;24.10;14.60;;;;;;6306282;28;20016;-75
2024/03/30 01:59:03;;;;;;;21.88;2.63;;;24.00;14.50;;;;;;6299065;28;20467;-76
2024/03/30 02:02:04;;;;;;;37.88;3.53;;;24.00;14.70;;;;;;6288246;28;20020;-76
2024/03/30 02:05:05;;;;;;;25.55;2.67;;;24.00;14.90;;;;;;6305671;28;20016;-75
2024/03/30 02:08:07;;;;;;;19.85;3.30;;;24.00;15.00;;;;;;6284945;28;20030;-75
2024/03/30 02:11:09;;;;;;;36.90;2.78;;;23.90;15.20;;;;;;6300623;28;20020;-76
2024/03/30 02:14:10;;;;;;;34.80;3.15;;;23.90;15.20;;;;;;6307113;28;20117;-75
2024/03/30 02:17:11;;;;;;;26.63;2.75;;;23.80;15.30;;;;;;6306348;28;20020;-75
2024/03/30 02:20:12;;;;;;;16.67;2.67;;;23.80;15.50;;;;;;6286197;28;20225;-76
2024/03/30 02:23:16;;;;;;;48.88;3.25;;;23.80;15.60;;;;;;6306381;28;20424;-76
2024/03/30 02:26:17;;;;;;;26.00;2.58;;;23.80;15.40;;;;;;6306908;28;20094;-75
2024/03/30 02:29:21;;;;;;;38.78;2.67;;;23.70;15.30;;;;;;6306927;28;20135;-75
2024/03/30 02:32:22;;;;;;;21.05;2.40;;;23.80;15.40;;;;;;6305345;28;20108;-74
2024/03/30 02:35:23;;;;;;;24.30;2.40;;;23.70;15.30;;;;;;6306628;28;20012;-75
2024/03/30 02:38:24;;;;;;;39.17;2.47;;;23.80;15.70;;;;;;6305849;28;20011;-75
2024/03/30 02:41:25;;;;;;;33.50;3.53;;;23.80;15.20;;;;;;6297375;28;20471;-74
2024/03/30 02:44:26;;;;;;;29.50;2.47;;;23.80;15.20;;;;;;6293904;28;20370;-75
2024/03/30 02:47:27;;;;;;;47.17;3.90;;;23.80;15.20;;;;;;6302308;28;20122;-75
2024/03/30 02:50:27;;;;;;;29.85;2.90;;;23.80;15.40;;;;;;6305958;28;20008;-75
2024/03/30 02:53:29;;;;;;;35.80;3.25;;;23.80;15.70;;;;;;6285711;28;20020;-75
2024/03/30 02:56:31;;;;;;;36.70;2.85;;;23.80;15.80;;;;;;6306013;28;20019;-76
2024/03/30 02:59:32;;;;;;;31.35;2.47;;;23.70;16.00;;;;;;6301320;28;20028;-73
2024/03/30 03:02:33;;;;;;;22.88;3.20;;;23.60;16.10;;;;;;6306551;28;20019;-76
2024/03/30 03:05:34;;;;;;;24.60;1.92;;;23.60;16.20;;;;;;6284920;28;20035;-75
2024/03/30 03:08:35;;;;;;;24.92;2.22;;;23.50;16.30;;;;;;6306109;28;20071;-76
2024/03/30 03:11:35;;;;;;;24.48;2.67;;;23.40;16.40;;;;;;6286950;28;20016;-77
2024/03/30 03:14:36;;;;;;;41.47;2.80;;;23.40;16.50;;;;;;6287944;28;20264;-76
2024/03/30 03:17:37;;;;;;;21.13;2.33;;;23.40;16.60;;;;;;6305418;28;20048;-76
2024/03/30 03:20:41;;;;;;;30.48;2.75;;;23.30;16.60;;;;;;6306503;28;21705;-75
2024/03/30 03:23:42;;;;;;;30.33;2.47;;;23.30;16.70;;;;;;6305505;28;20027;-74
2024/03/30 03:26:43;;;;;;;9.63;2.03;;;23.30;16.70;;;;;;6304866;28;20036;-76
2024/03/30 03:29:44;;;;;;;23.52;2.40;;;23.30;16.80;;;;;;6282464;28;20023;-76
2024/03/30 03:32:45;;;;;;;16.00;2.15;;;23.30;16.80;;;;;;6300955;28;20052;-76
2024/03/30 03:35:46;;;;;;;31.55;3.20;;;23.20;16.80;;;;;;6306200;28;20459;-74
2024/03/30 03:38:47;;;;;;;21.98;2.92;;;23.20;16.70;;;;;;6303132;28;20016;-76
2024/03/30 03:41:48;;;;;;;22.90;2.33;;;23.20;16.80;;;;;;6305855;28;20029;-76
2024/03/30 03:44:49;;;;;;;16.48;2.35;;;23.20;16.70;;;;;;6303614;28;20016;-75
2024/03/30 03:47:50;;;;;;;32.92;3.75;;;23.20;16.60;;;;;;6304681;28;20169;-75
2024/03/30 03:50:51;;;;;;;19.45;2.88;;;23.20;16.50;;;;;;6300660;28;20417;-76
2024/03/30 03:53:52;;;;;;;32.83;3.17;;;23.20;16.50;;;;;;6287668;28;20029;-77
2024/03/30 03:56:52;;;;;;;40.80;2.83;;;23.20;16.60;;;;;;6298210;28;20457;-74
2024/03/30 03:59:55;;;;;;;45.78;3.58;;;23.30;16.40;;;;;;6305180;28;20016;-76
2024/03/30 04:02:56;;;;;;;21.33;2.85;;;23.20;16.30;;;;;;6301934;28;20023;-75
2024/03/30 04:05:57;;;;;;;37.47;4.53;;;23.30;16.30;;;;;;6286362;28;20091;-74
2024/03/30 04:08:58;;;;;;;26.20;3.08;;;23.30;16.10;;;;;;6283994;28;20020;-75
2024/03/30 04:11:59;;;;;;;27.88;3.10;;;23.40;16.10;;;;;;6286300;28;20422;-76
2024/03/30 04:15:00;;;;;;;19.27;2.42;;;23.40;16.00;;;;;;6300664;28;20024;-76
2024/03/30 04:18:01;;;;;;;26.05;3.08;;;23.40;16.00;;;;;;6295481;28;20012;-76
2024/03/30 04:21:05;;;;;;;32.67;2.60;;;23.40;15.90;;;;;;6285231;28;20540;-76
2024/03/30 04:24:06;;;;;;;29.55;2.70;;;23.50;16.00;;;;;;6309464;28;20016;-76
2024/03/30 04:27:06;;;;;;;36.85;4.85;;;23.50;16.00;;;;;;6284060;28;20838;-76
2024/03/30 04:30:10;;;;;;;41.00;3.38;;;23.40;15.70;;;;;;6309097;28;20024;-76
2024/03/30 04:33:11;;;;;;;38.60;2.88;;;23.50;15.80;;;;;;6309069;28;20059;-76
2024/03/30 04:36:11;;;;;;;35.97;3.10;;;23.60;15.80;;;;;;6309130;28;20028;-75
2024/03/30 04:39:12;;;;;;;54.05;3.72;;;23.60;15.90;;;;;;6286445;28;20020;-77
2024/03/30 04:42:13;;;;;;;43.95;3.95;;;23.60;16.00;;;;;;6290071;28;20143;-76
2024/03/30 04:45:14;;;;;;;42.30;3.03;;;23.60;16.10;;;;;;6303774;28;20024;-75
2024/03/30 04:48:15;;;;;;;43.08;3.65;;;23.60;16.10;;;;;;6303899;28;20078;-75
2024/03/30 04:51:16;;;;;;;43.33;3.35;;;23.60;16.20;;;;;;6281983;28;20103;-75
2024/03/30 04:54:17;;;;;;;42.50;4.07;;;23.50;16.30;;;;;;6307002;28;20032;-75
2024/03/30 04:57:18;;;;;;;41.75;4.43;;;23.60;16.40;;;;;;6290316;28;20024;-75
2024/03/30 05:00:19;;;;;;;19.00;3.50;;;23.50;16.50;;;;;;6304220;28;20052;-75
2024/03/30 05:03:20;;;;;;;50.28;4.60;;;23.50;16.50;;;;;;6308665;28;20016;-76
2024/03/30 05:06:21;;;;;;;47.53;3.97;;;23.60;16.60;;;;;;6308256;28;20081;-75
2024/03/30 05:09:22;;;;;;;53.78;5.43;;;23.60;16.70;;;;;;6306068;28;20043;-73
2024/03/30 05:12:23;;;;;;;37.10;5.03;;;23.60;16.70;;;;;;6281159;28;20499;-75
2024/03/30 05:15:23;;;;;;;68.05;3.97;;;23.50;16.70;;;;;;6308107;28;20099;-75
2024/03/30 05:18:27;;;;;;;64.22;4.65;;;23.50;16.80;;;;;;6284018;28;20510;-76
2024/03/30 05:21:27;;;;;;;27.10;2.25;;;23.50;16.80;;;;;;6304190;28;20027;-78
2024/03/30 05:24:29;;;;;;;80.22;6.15;;;23.50;16.80;;;;;;6308570;28;20498;-75
2024/03/30 05:27:29;;;;;;;46.75;4.00;;;23.50;16.80;;;;;;6308023;28;20471;-76
2024/03/30 05:30:30;;;;;;;47.40;5.15;;;23.50;16.90;;;;;;6302935;28;20024;-77
2024/03/30 05:33:31;;;;;;;54.97;4.78;;;23.40;16.90;;;;;;6307063;28;20081;-76
2024/03/30 05:36:32;;;;;;;40.88;4.05;;;23.50;16.90;;;;;;6305232;28;20069;-77
2024/03/30 05:39:33;;;;;;;57.83;4.50;;;23.50;16.90;;;;;;6305986;28;20020;-76
2024/03/30 05:42:34;;;;;;;40.78;4.45;;;23.50;17.00;;;;;;6308249;28;20058;-75
2024/03/30 05:45:37;;;;;;;32.05;4.57;;;23.40;16.90;;;;;;6301184;28;20012;-76
2024/03/30 05:48:38;;;;;;;65.97;4.88;;;23.60;17.00;;;;;;6296990;28;20021;-75
2024/03/30 05:51:51;;;;;;;43.03;4.38;;;23.60;17.10;;;;;;6301790;28;20468;-75
2024/03/30 05:54:52;;;;;;;41.03;4.03;;;23.60;17.10;;;;;;6308066;28;20151;-76
2024/03/30 05:57:56;;;;;;;47.40;4.20;;;23.60;17.10;;;;;;6307641;28;20020;-77
2024/03/30 06:00:57;;;;;;;38.00;4.00;;;23.60;17.20;;;;;;6305779;28;20062;-76
2024/03/30 06:03:58;;;;;;;68.90;5.28;;;23.60;17.20;;;;;;6289430;28;20399;-78
2024/03/30 06:06:58;;;;;;;54.65;4.22;;;23.70;17.30;;;;;;6305485;28;20093;-74
2024/03/30 06:10:00;;;;;;;54.00;5.03;;;23.70;17.30;;;;;;6305421;28;20858;-75
2024/03/30 06:13:01;;;;;;;55.72;5.22;;;23.70;17.20;;;;;;6289203;28;20173;-76
2024/03/30 06:16:03;;;;;;;43.28;3.97;;;23.70;17.30;;;;;;6308087;28;20463;-74
2024/03/30 06:19:04;;;;;;;42.55;4.13;;;23.70;17.30;;;;;;6289164;28;20028;-76
2024/03/30 06:22:05;;;;;;;44.13;4.95;;;23.70;17.30;;;;;;6306794;28;20619;-76
2024/03/30 06:25:06;;;;;;;52.25;4.05;;;23.70;17.30;;;;;;6306151;28;20068;-76
2024/03/30 06:28:07;;;;;;;46.10;4.25;;;23.80;17.40;;;;;;6304697;28;20059;-75
2024/03/30 06:31:08;;;;;;;62.15;4.13;;;23.80;17.40;;;;;;6288201;28;20488;-76
2024/03/30 06:34:12;;;;;;;27.40;3.25;;;23.80;17.40;;;;;;6302378;28;20361;-75
2024/03/30 06:37:13;;;;;;;51.55;3.60;;;23.80;17.50;;;;;;6270531;28;20031;-74
2024/03/30 06:43:42;;;;;;;56.50;4.20;;;23.80;18.10;;;;;;6305544;28;20472;-76
2024/03/30 06:46:43;;;;;;;68.85;4.53;;;23.80;17.80;;;;;;6306942;28;20040;-76
2024/03/30 06:49:44;;;;;;;55.83;5.65;;;23.80;18.00;;;;;;6306324;28;20035;-75
2024/03/30 06:52:45;;;;;;;45.97;4.95;;;23.80;18.10;;;;;;6287790;28;20073;-75
2024/03/30 06:55:46;;;;;;;47.58;4.63;;;23.70;18.30;;;;;;6306090;28;20026;-75
2024/03/30 06:58:46;;;;;;;39.95;3.60;;;23.80;19.00;;;;;;6301470;28;20020;-76
2024/03/30 07:01:47;;;;;;;39.15;3.78;;;23.70;18.50;;;;;;6288122;28;20039;-75
2024/03/30 07:04:48;;;;;;;67.68;5.15;;;23.70;18.70;;;;;;6305231;28;20016;-76
2024/03/30 07:07:49;;;;;;;45.10;3.60;;;23.70;18.80;;;;;;6302287;28;20036;-75
2024/03/30 07:10:50;;;;;;;46.90;4.35;;;23.70;19.00;;;;;;6298403;28;20106;-75
2024/03/30 07:13:51;;;;;;;64.82;4.70;;;23.70;19.20;;;;;;6285360;28;20039;-76
2024/03/30 07:16:58;;;;;;;66.88;4.18;;;23.70;19.30;;;;;;6271090;28;20071;-74
2024/03/30 07:20:00;;;;;;;50.22;4.88;;;23.70;19.50;;;;;;6278820;28;20059;-75
2024/03/30 07:23:01;;;;;;;39.65;3.80;;;23.70;19.60;;;;;;6298718;28;20040;-76
2024/03/30 07:26:03;;;;;;;73.07;6.68;;;23.60;19.70;;;;;;6301379;28;20132;-75
2024/03/30 07:29:05;;;;;;;48.80;4.03;;;23.60;19.80;;;;;;6305461;28;20104;-76
2024/03/30 07:32:06;;;;;;;66.25;6.00;;;23.60;20.00;;;;;;6305298;28;20024;-77
2024/03/30 07:35:07;;;;;;;45.80;3.65;;;23.60;20.10;;;;;;6305160;28;20131;-75
2024/03/30 07:38:08;;;;;;;40.17;4.07;;;23.60;20.40;;;;;;6269936;28;20020;-77
2024/03/30 07:41:09;;;;;;;37.13;3.88;;;23.60;20.60;;;;;;6301129;28;20027;-75
2024/03/30 07:44:11;;;;;;;51.30;4.45;;;23.50;21.00;;;;;;6305192;28;20199;-74
2024/03/30 07:47:12;;;;;;;46.17;6.60;;;23.50;21.20;;;;;;6303746;28;20028;-75
2024/03/30 07:50:13;;;;;;;49.47;3.97;;;23.40;21.50;;;;;;6304659;28;20106;-76
2024/03/30 07:53:14;;;;;;;63.97;5.80;;;23.40;21.90;;;;;;6297637;28;20076;-75
2024/03/30 07:56:15;;;;;;;39.20;3.83;;;23.30;22.10;;;;;;6300482;28;20016;-76
2024/03/30 07:59:16;;;;;;;42.63;3.70;;;23.20;22.50;;;;;;6291576;28;20379;-76
2024/03/30 08:02:17;;;;;;;48.45;4.97;;;23.20;22.90;;;;;;6309613;28;20132;-74
2024/03/30 08:05:18;;;;;;;35.45;3.22;;;23.10;23.30;;;;;;6307435;28;20019;-74
2024/03/30 08:08:19;;;;;;;28.20;2.60;;;23.00;23.90;;;;;;6310022;28;20050;-74
2024/03/30 08:11:21;;;;;;;32.28;3.72;;;22.90;24.10;;;;;;6309740;28;20020;-76
2024/03/30 08:14:22;;;;;;;34.40;3.28;;;22.90;24.30;;;;;;6290936;28;20093;-73
2024/03/30 08:17:23;;;;;;;19.92;2.60;;;22.70;24.70;;;;;;6303840;28;20087;-75
2024/03/30 08:20:24;;;;;;;24.63;3.05;;;22.60;25.00;;;;;;6277485;28;20071;-74
2024/03/30 08:23:25;;;;;;;32.10;5.68;;;22.60;25.20;;;;;;6296783;28;20096;-75
2024/03/30 08:26:26;;;;;;;50.75;4.50;;;22.50;25.40;;;;;;6307003;28;20016;-75
2024/03/30 08:29:27;;;;;;;41.90;4.50;;;22.40;25.90;;;;;;6286189;28;20499;-76
2024/03/30 08:32:27;;;;;;;26.02;2.88;;;22.30;26.30;;;;;;6286255;28;20066;-76
2024/03/30 08:35:28;;;;;;;29.42;4.82;;;22.20;26.90;;;;;;6305433;28;20619;-76
2024/03/30 08:38:29;;;;;;;34.80;3.83;;;22.10;27.50;;;;;;6309325;28;20470;-76
2024/03/30 08:41:30;;;;;;;47.75;4.78;;;21.90;27.20;;;;;;6308759;28;21267;-75
2024/03/30 08:44:31;;;;;;;37.13;3.97;;;21.80;27.60;;;;;;6307929;28;20031;-75
2024/03/30 08:47:32;;;;;;;57.47;4.95;;;21.80;27.90;;;;;;6305384;28;20020;-75
2024/03/30 08:50:33;;;;;;;45.42;4.25;;;21.80;28.00;;;;;;6308059;28;20040;-76
2024/03/30 08:53:34;;;;;;;21.80;2.53;;;21.70;28.20;;;;;;6300405;28;20073;-76
2024/03/30 08:56:36;;;;;;;42.33;3.80;;;21.70;28.40;;;;;;6296347;28;20087;-75
2024/03/30 08:59:37;;;;;;;35.38;3.58;;;21.60;28.60;;;;;;6307883;28;20389;-75
2024/03/30 09:02:41;;;;;;;41.72;4.30;;;21.60;28.90;;;;;;6308259;28;20024;-77
2024/03/30 09:05:43;;;;;;;48.90;4.47;;;21.40;28.90;;;;;;6301173;28;20228;-75
2024/03/30 09:08:44;;;;;;;51.17;5.28;;;21.50;29.00;;;;;;6309179;28;20016;-76
2024/03/30 09:11:45;;;;;;;38.72;3.50;;;21.50;29.10;;;;;;6306497;28;20039;-76
2024/03/30 09:14:46;;;;;;;38.08;4.30;;;21.50;29.40;;;;;;6303571;28;20024;-77
2024/03/30 09:17:47;;;;;;;43.55;4.22;;;21.50;29.30;;;;;;6309006;28;20102;-76
2024/03/30 09:20:48;;;;;;;59.30;5.05;;;21.50;29.20;;;;;;6308836;28;20026;-76
2024/03/30 09:23:49;;;;;;;35.35;4.43;;;21.50;29.30;;;;;;6303990;28;20436;-76
2024/03/30 09:26:50;;;;;;;50.03;5.13;;;21.60;29.30;;;;;;6308584;28;20461;-76
2024/03/30 09:29:50;;;;;;;53.15;4.50;;;21.60;29.40;;;;;;6288673;28;20430;-78
2024/03/30 09:32:51;;;;;;;41.35;5.18;;;21.70;29.60;;;;;;6278421;28;20784;-75
2024/03/30 09:35:54;;;;;;;77.72;6.18;;;21.70;29.40;;;;;;6307847;28;20373;-76
2024/03/30 09:38:55;;;;;;;43.78;4.30;;;21.70;29.30;;;;;;6307964;28;20031;-76
2024/03/30 09:41:59;;;;;;;49.42;4.63;;;21.80;29.40;;;;;;6306842;28;20477;-76
2024/03/30 09:45:00;;;;;;;42.75;5.25;;;21.80;29.40;;;;;;6301754;28;20046;-77
2024/03/30 09:48:02;;;;;;;49.67;4.38;;;21.90;29.50;;;;;;6308233;28;20020;-78
2024/03/30 09:51:05;;;;;;;46.65;5.85;;;21.90;29.40;;;;;;6287976;28;20483;-77
2024/03/30 09:54:07;;;;;;;43.35;4.32;;;21.90;29.30;;;;;;6308118;28;20476;-76
2024/03/30 09:57:08;;;;;;;42.28;4.20;;;21.90;29.30;;;;;;6297958;28;20066;-78
2024/03/30 10:00:12;;;;;;;57.35;4.90;;;22.00;29.40;;;;;;6288747;28;20124;-77
2024/03/30 10:03:13;;;;;;;44.58;4.50;;;22.00;29.40;;;;;;6287134;28;20028;-75
2024/03/30 10:06:22;;;;;;;55.38;5.00;;;22.00;29.30;;;;;;6308147;28;20016;-76
2024/03/30 10:09:27;;;;;;;45.72;4.05;;;22.00;29.20;;;;;;6304360;28;20043;-76
2024/03/30 10:12:54;;;;;;;54.67;5.53;;;22.00;29.30;;;;;;6307347;28;20114;-76
2024/03/30 10:15:56;;;;;;;34.30;4.22;;;21.90;29.30;;;;;;6305652;28;20088;-77
2024/03/30 10:18:58;;;;;;;41.20;3.53;;;21.90;31.40;;;;;;6287628;28;20035;-77
2024/03/30 10:21:59;;;;;;;46.40;4.00;;;21.60;33.60;;;;;;6308427;28;20027;-75
2024/03/30 10:25:00;;;;;;;43.92;4.55;;;21.20;35.60;;;;;;6296554;28;20020;-75
2024/03/30 10:28:02;;;;;;;21.75;3.47;;;20.90;36.60;;;;;;6305319;28;20472;-76
2024/03/30 10:31:03;;;;;;;38.88;3.25;;;20.60;37.80;;;;;;6301870;28;20124;-77
2024/03/30 10:34:07;;;;;;;40.03;4.75;;;20.20;39.30;;;;;;6284667;28;20112;-77
2024/03/30 10:37:08;;;;;;;31.30;5.53;;;19.90;40.40;;;;;;6288142;28;20074;-76
2024/03/30 10:40:10;;;;;;;36.35;5.05;;;19.50;42.00;;;;;;6286630;28;20028;-76
2024/03/30 10:43:10;;;;;;;32.83;3.05;;;19.30;43.00;;;;;;6288032;28;20078;-75
2024/03/30 10:46:15;;;;;;;41.10;3.78;;;19.00;43.80;;;;;;6306617;28;20024;-75
2024/03/30 10:49:16;;;;;;;17.17;3.17;;;18.80;44.10;;;;;;6307127;28;20020;-76
2024/03/30 10:52:16;;;;;;;35.65;3.95;;;18.60;44.60;;;;;;6304663;28;20673;-77
2024/03/30 10:55:18;;;;;;;30.17;3.95;;;18.50;44.80;;;;;;6297880;28;20012;-76
2024/03/30 10:58:19;;;;;;;35.28;4.00;;;18.30;45.70;;;;;;6287734;28;20027;-75
2024/03/30 11:01:20;;;;;;;26.90;3.20;;;18.20;46.70;;;;;;6305592;28;20044;-76
2024/03/30 11:04:23;;;;;;;33.42;4.05;;;18.20;46.90;;;;;;6305945;28;20020;-76
2024/03/30 11:07:25;;;;;;;31.55;3.22;;;18.10;47.60;;;;;;6306011;28;20074;-76
2024/03/30 11:10:26;;;;;;;19.60;3.55;;;17.90;48.10;;;;;;6306519;28;20126;-78
2024/03/30 11:13:27;;;;;;;32.85;3.03;;;17.80;48.50;;;;;;6300131;28;20069;-76
2024/03/30 11:16:33;;;;;;;37.13;2.65;;;17.80;48.90;;;;;;6306472;28;20103;-77
2024/03/30 11:19:42;;;;;;;25.85;3.25;;;17.70;49.40;;;;;;6285549;28;20107;-76
2024/03/30 11:23:07;;;;;;;44.05;3.25;;;17.50;50.20;;;;;;6288380;28;20433;-76
2024/03/30 11:26:09;;;;;;;22.63;3.03;;;17.40;51.20;;;;;;6267663;28;20023;-76
2024/03/30 11:29:43;;;;;;;30.90;3.47;;;17.20;53.10;;;;;;6308515;28;20019;-77
2024/03/30 11:32:52;;;;;;;27.60;3.42;;;17.00;53.60;;;;;;6183081;28;20125;-76
2024/03/30 11:36:05;;;;;;;19.20;3.08;;;16.90;53.80;;;;;;6181836;28;20316;-75
2024/03/30 11:39:14;;;;;;;25.25;3.67;;;16.80;53.90;;;;;;6183432;28;20030;-76
2024/03/30 11:42:25;;;;;;;22.13;3.15;;;16.80;54.10;;;;;;6182455;28;20084;-78
2024/03/30 11:45:30;;;;;;;21.88;3.10;;;16.80;54.60;;;;;;6177853;28;20026;-77
2024/03/30 11:48:32;;;;;;;30.38;3.10;;;16.80;55.20;;;;;;6159770;28;20023;-76
2024/03/30 11:51:38;;;;;;;20.35;2.92;;;16.80;55.40;;;;;;6175033;28;20045;-78
2024/03/30 11:54:44;;;;;;;27.30;3.13;;;16.60;55.10;;;;;;6172364;28;20503;-77
2024/03/30 11:57:54;;;;;;;33.10;2.70;;;16.90;55.40;;;;;;6181630;28;20442;-77
2024/03/30 12:00:58;;;;;;;20.65;4.25;;;17.00;55.20;;;;;;6166333;28;20027;-76
2024/03/30 12:03:59;;;;;;;29.25;3.05;;;17.00;55.10;;;;;;6180548;28;20058;-76
2024/03/30 12:07:01;;;;;;;19.63;3.08;;;17.10;55.20;;;;;;6173104;28;20065;-77
2024/03/30 12:10:07;;;;;;;25.98;2.58;;;17.10;55.60;;;;;;6273334;28;20192;-77
2024/03/30 12:13:10;;;;;;;30.25;2.80;;;17.00;56.20;;;;;;6310566;28;20027;-76
2024/03/30 12:16:11;;;;;;;24.45;2.65;;;17.00;56.60;;;;;;6307704;28;20008;-77
2024/03/30 12:19:12;;;;;;;25.33;2.67;;;17.00;56.40;;;;;;6279529;28;20464;-76
2024/03/30 12:22:13;;;;;;;25.08;3.42;;;17.00;56.30;;;;;;6309591;28;20027;-77
2024/03/30 12:25:15;;;;;;;16.42;2.83;;;17.00;56.20;;;;;;6310465;28;20050;-77
2024/03/30 12:28:17;;;;;;;11.30;1.83;;;17.10;56.10;;;;;;6310596;28;20500;-77
2024/03/30 12:31:18;;;;;;;13.43;2.67;;;17.10;55.90;;;;;;6309552;28;20023;-77
2024/03/30 12:34:21;;;;;;;16.25;2.35;;;17.10;55.70;;;;;;6306272;28;20023;-77
2024/03/30 12:37:21;;;;;;;9.75;1.48;;;17.00;55.60;;;;;;6307191;28;20219;-79
2024/03/30 12:40:29;;;;;;;12.80;1.92;;;17.00;55.60;;;;;;6299119;28;20012;-76
2024/03/30 12:43:30;;;;;;;14.25;1.55;;;17.10;55.60;;;;;;6308558;28;20051;-75
2024/03/30 12:46:31;;;;;;;15.73;2.05;;;17.30;55.30;;;;;;6305692;28;20483;-76
2024/03/30 12:49:34;;;;;;;6.72;1.60;;;17.30;55.00;;;;;;6289021;28;20429;-77
2024/03/30 12:52:36;;;;;;;21.95;2.30;;;17.50;54.90;;;;;;6308836;28;20488;-77
2024/03/30 12:55:37;;;;;;;5.57;1.08;;;17.50;54.70;;;;;;6304069;28;20022;-76
2024/03/30 12:58:39;;;;;;;14.13;1.60;;;17.70;54.60;;;;;;6289851;28;20036;-77
2024/03/30 13:01:40;;;;;;;15.13;1.70;;;17.90;54.50;;;;;;6306095;28;20091;-76
2024/03/30 13:04:41;;;;;;;13.95;2.08;;;17.80;54.10;;;;;;6307966;28;20077;-75
2024/03/30 13:07:42;;;;;;;15.20;1.83;;;17.90;54.10;;;;;;6287122;28;20107;-77
2024/03/30 13:10:47;;;;;;;9.07;1.70;;;17.90;54.20;;;;;;6308737;28;20123;-78
2024/03/30 13:13:51;;;;;;;13.95;2.45;;;17.90;54.40;;;;;;6310279;28;20463;-77
2024/03/30 13:17:02;;;;;;;21.98;2.38;;;17.80;54.40;;;;;;6289978;28;20331;-77
2024/03/30 13:20:05;;;;;;;12.00;1.90;;;17.80;54.70;;;;;;6306068;28;20024;-78
2024/03/30 13:23:09;;;;;;;20.58;2.33;;;17.70;55.30;;;;;;6303737;28;20486;-76
2024/03/30 13:26:11;;;;;;;5.35;1.60;;;17.50;55.90;;;;;;6282187;28;20072;-76
2024/03/30 13:29:11;;;;;;;9.60;1.60;;;17.70;56.10;;;;;;6285243;28;20032;-77
2024/03/30 13:32:12;;;;;;;12.48;2.13;;;18.00;55.80;;;;;;6308530;28;20122;-76
2024/03/30 13:35:13;;;;;;;16.00;2.58;;;18.40;55.10;;;;;;6306497;28;20558;-76
2024/03/30 13:38:15;;;;;;;11.27;2.13;;;18.80;54.30;;;;;;6306061;28;20593;-76
2024/03/30 13:41:16;;;;;;;19.40;3.70;;;19.20;53.60;;;;;;6280269;28;20434;-75
2024/03/30 13:44:17;;;;;;;14.25;1.77;;;19.70;52.80;;;;;;6285872;28;20016;-77
2024/03/30 13:47:18;;;;;;;18.15;2.33;;;20.30;51.80;;;;;;6283935;28;20036;-77
2024/03/30 13:50:19;;;;;;;19.35;3.13;;;20.80;50.70;;;;;;6308232;28;20050;-77
2024/03/30 13:53:19;;;;;;;18.05;2.53;;;21.20;50.30;;;;;;6306708;28;20020;-75
2024/03/30 13:56:20;;;;;;;20.75;3.13;;;21.30;49.80;;;;;;6307910;28;20019;-78
2024/03/30 13:59:21;;;;;;;25.73;2.90;;;21.40;48.90;;;;;;6308189;28;20563;-76
2024/03/30 14:02:22;;;;;;;15.65;2.10;;;21.40;48.50;;;;;;6289426;28;20380;-77
2024/03/30 14:05:23;;;;;;;24.67;2.85;;;21.60;47.80;;;;;;6307971;28;20024;-75
2024/03/30 14:08:24;;;;;;;25.40;2.90;;;21.70;47.20;;;;;;6285759;28;20024;-76
2024/03/30 14:11:25;;;;;;;15.77;3.13;;;21.60;46.80;;;;;;6307298;28;20509;-77
2024/03/30 14:14:25;;;;;;;38.67;3.28;;;21.70;47.10;;;;;;6307258;28;20012;-78
2024/03/30 14:17:31;;;;;;;24.58;3.65;;;21.80;46.40;;;;;;6305453;28;20095;-77
2024/03/30 14:20:33;;;;;;;27.27;3.08;;;21.90;46.30;;;;;;6287090;28;20027;-77
2024/03/30 14:23:43;;;;;;;37.50;4.38;;;21.90;46.30;;;;;;6309747;28;20042;-77
2024/03/30 14:26:44;;;;;;;47.85;5.00;;;22.00;45.90;;;;;;6289090;28;20028;-77
2024/03/30 14:29:45;;;;;;;44.83;4.30;;;21.90;44.90;;;;;;6307519;28;20447;-77
2024/03/30 14:32:46;;;;;;;54.03;5.30;;;21.80;44.50;;;;;;6287987;28;20052;-75
2024/03/30 14:35:46;;;;;;;40.15;6.15;;;21.60;44.00;;;;;;6304513;28;20024;-76
2024/03/30 14:38:47;;;;;;;42.05;4.28;;;21.50;43.80;;;;;;6261383;28;20074;-76
2024/03/30 14:41:49;;;;;;;62.83;6.80;;;21.40;43.60;;;;;;6306604;28;20016;-75
2024/03/30 14:44:53;;;;;;;29.95;4.95;;;21.20;43.70;;;;;;6297317;28;20549;-76
2024/03/30 14:47:54;;;;;;;52.67;4.78;;;21.10;44.10;;;;;;6305072;28;20027;-77
2024/03/30 14:50:54;;;;;;;47.72;5.57;;;21.00;44.40;;;;;;6305636;28;20101;-75
2024/03/30 14:53:56;;;;;;;40.95;7.25;;;20.90;44.80;;;;;;6286517;28;20101;-75
2024/03/30 14:56:57;;;;;;;67.97;9.35;;;20.80;45.20;;;;;;6278354;28;20020;-77
2024/03/30 14:59:58;;;;;;;44.28;5.53;;;20.60;45.40;;;;;;6306296;28;20050;-77
2024/03/30 15:02:59;;;;;;;48.83;5.03;;;20.50;45.90;;;;;;6306264;28;20038;-77
2024/03/30 15:06:03;;;;;;;65.40;7.57;;;20.40;46.30;;;;;;6307009;28;20020;-77
2024/03/30 15:09:06;;;;;;;58.17;7.32;;;20.30;46.60;;;;;;6306655;28;20075;-76
2024/03/30 15:12:07;;;;;;;44.72;5.95;;;20.30;46.70;;;;;;6306134;28;20138;-76
2024/03/30 15:15:08;;;;;;;42.58;5.70;;;20.30;46.90;;;;;;6283286;28;20023;-76
2024/03/30 15:18:09;;;;;;;38.42;5.60;;;20.30;47.20;;;;;;6304297;28;20174;-76
2024/03/30 15:21:10;;;;;;;41.65;5.18;;;20.40;47.30;;;;;;6287770;28;20028;-77
2024/03/30 15:24:11;;;;;;;46.80;5.28;;;20.30;47.10;;;;;;6305630;28;20019;-76
2024/03/30 15:27:12;;;;;;;57.78;6.90;;;20.30;46.90;;;;;;6303601;28;20542;-76
2024/03/30 15:33:32;;;;;;;45.60;5.97;;;20.30;47.10;;;;;;6302549;28;20024;-76
2024/03/30 15:36:33;;;;;;;52.10;4.75;;;20.30;47.30;;;;;;6302568;28;20037;-76
2024/03/30 15:39:34;;;;;;;48.28;4.43;;;20.30;47.30;;;;;;6305729;28;20032;-73
2024/03/30 15:42:35;;;;;;;34.20;4.95;;;20.20;47.20;;;;;;6302125;28;20024;-77